createdAt,value
2019-06-15T00:00:56.402Z,75.67
2019-06-15T00:03:27.562Z,75.32
2019-06-15T00:05:58.970Z,76.02
2019-06-15T00:08:31.403Z,75.97
2019-06-15T00:11:02.699Z,76.08
2019-06-15T00:13:34.054Z,75.55
2019-06-15T00:16:05.495Z,75.69
2019-06-15T00:18:36.687Z,76.16
2019-06-15T00:21:08.098Z,75.46
2019-06-15T00:23:39.317Z,75.66
2019-06-15T00:26:11.028Z,75.61
2019-06-15T00:28:42.256Z,75.08
2019-06-15T00:31:13.613Z,75.87
2019-06-15T00:33:44.796Z,76.02
2019-06-15T00:36:16.038Z,76.47
2019-06-15T00:38:47.441Z,76.67
2019-06-15T00:41:18.682Z,77.08
2019-06-15T00:43:49.960Z,76.87
2019-06-15T00:46:21.324Z,76.72
2019-06-15T00:48:52.689Z,76.98
2019-06-15T00:51:23.878Z,76.81
2019-06-15T00:53:54.874Z,76.64
2019-06-15T00:56:26.083Z,76.51
2019-06-15T00:58:57.484Z,76.49
2019-06-15T01:01:28.802Z,76.54
2019-06-15T01:03:59.979Z,76.94
2019-06-15T01:06:31.413Z,78.00
2019-06-15T01:09:02.556Z,77.98
2019-06-15T01:11:35.743Z,78.78
2019-06-15T01:14:07.357Z,78.16
2019-06-15T01:16:38.621Z,77.88
2019-06-15T01:19:09.803Z,77.51
2019-06-15T01:21:41.393Z,77.28
2019-06-15T01:24:12.634Z,77.70
2019-06-15T01:26:43.832Z,78.30
2019-06-15T01:29:15.051Z,79.46
2019-06-15T01:31:46.224Z,79.46
2019-06-15T01:34:17.445Z,79.74
2019-06-15T01:36:48.714Z,80.81
2019-06-15T01:39:20.007Z,80.54
2019-06-15T01:41:51.502Z,80.41
2019-06-15T01:44:23.737Z,80.38
2019-06-15T01:46:55.063Z,81.14
2019-06-15T01:49:26.342Z,81.21
2019-06-15T01:51:57.774Z,80.91
2019-06-15T01:54:29.001Z,80.69
2019-06-15T01:57:00.236Z,81.08
2019-06-15T01:59:31.420Z,81.37
2019-06-15T02:02:02.636Z,81.48
2019-06-15T02:04:33.789Z,81.34
2019-06-15T02:07:05.443Z,81.72
2019-06-15T02:09:36.674Z,81.42
2019-06-15T02:12:07.978Z,81.86
2019-06-15T02:14:39.452Z,81.63
2019-06-15T02:17:11.845Z,81.56
2019-06-15T02:19:43.413Z,81.51
2019-06-15T02:22:15.610Z,81.58
2019-06-15T02:24:46.807Z,81.93
2019-06-15T02:27:18.382Z,82.39
2019-06-15T02:29:49.591Z,82.37
2019-06-15T02:32:21.188Z,82.38
2019-06-15T02:34:52.467Z,82.46
2019-06-15T02:37:23.763Z,82.55
2019-06-15T02:39:55.104Z,82.48
2019-06-15T02:42:26.443Z,82.25
2019-06-15T02:44:57.793Z,82.24
2019-06-15T02:47:29.224Z,82.19
2019-06-15T02:50:00.503Z,81.74
2019-06-15T02:52:31.915Z,82.14
2019-06-15T02:55:03.395Z,82.49
2019-06-15T02:57:34.685Z,83.06
2019-06-15T03:00:06.543Z,82.74
2019-06-15T03:02:37.752Z,82.66
2019-06-15T03:05:09.763Z,83.10
2019-06-15T03:07:41.438Z,83.23
2019-06-15T03:10:12.820Z,82.84
2019-06-15T03:12:45.049Z,82.56
2019-06-15T03:15:17.841Z,82.13
2019-06-15T03:17:50.189Z,82.09
2019-06-15T03:20:21.537Z,82.31
2019-06-15T03:22:52.786Z,83.32
2019-06-15T03:25:25.006Z,83.41
2019-06-15T03:27:56.253Z,83.62
2019-06-15T03:30:27.485Z,83.49
2019-06-15T03:32:58.673Z,83.65
2019-06-15T03:35:30.033Z,83.84
2019-06-15T03:38:01.487Z,83.75
2019-06-15T03:40:32.680Z,83.66
2019-06-15T03:43:04.095Z,83.56
2019-06-15T03:45:35.335Z,83.77
2019-06-15T03:48:06.814Z,84.15
2019-06-15T03:50:37.977Z,84.13
2019-06-15T03:53:09.392Z,84.28
2019-06-15T03:55:41.907Z,83.87
2019-06-15T03:58:13.074Z,84.18
2019-06-15T04:00:55.864Z,84.40
2019-06-15T04:03:27.187Z,84.09
2019-06-15T04:05:58.339Z,84.16
2019-06-15T04:08:29.588Z,84.57
2019-06-15T04:11:00.783Z,84.15
2019-06-15T04:13:32.069Z,83.36
2019-06-15T04:16:03.442Z,83.00
2019-06-15T04:18:34.651Z,82.68
2019-06-15T04:21:06.110Z,82.55
2019-06-15T04:23:37.620Z,82.26
2019-06-15T04:26:08.812Z,81.84
2019-06-15T04:28:40.063Z,81.74
2019-06-15T04:31:11.172Z,81.16
2019-06-15T04:33:42.612Z,80.87
2019-06-15T04:36:13.893Z,80.91
2019-06-15T04:38:45.456Z,80.26
2019-06-15T04:41:16.708Z,79.75
2019-06-15T04:43:47.946Z,79.31
2019-06-15T04:46:18.897Z,79.17
2019-06-15T04:48:49.840Z,78.55
2019-06-15T04:51:21.753Z,78.62
2019-06-15T04:53:52.624Z,77.65
2019-06-15T04:56:23.898Z,76.95
2019-06-15T04:58:55.080Z,76.87
2019-06-15T05:01:25.986Z,75.74
2019-06-15T05:03:56.889Z,74.36
2019-06-15T05:06:27.824Z,74.10
2019-06-15T05:08:58.852Z,74.09
2019-06-15T05:11:30.074Z,74.08
2019-06-15T05:14:01.212Z,73.54
2019-06-15T05:16:32.466Z,73.16
2019-06-15T05:19:03.473Z,71.63
2019-06-15T05:21:34.584Z,70.30
2019-06-15T05:24:08.541Z,68.15
2019-06-15T05:26:38.213Z,65.06
2019-06-15T05:29:09.244Z,62.33
2019-06-15T05:31:40.133Z,60.50
2019-06-15T05:34:11.503Z,59.49
2019-06-15T05:36:42.469Z,57.38
2019-06-15T05:39:13.510Z,57.05
2019-06-15T05:41:44.483Z,54.99
2019-06-15T05:44:15.474Z,54.00
2019-06-15T05:46:46.428Z,52.65
2019-06-15T05:49:17.447Z,54.75
2019-06-15T05:51:48.527Z,55.47
2019-06-15T05:54:19.710Z,52.94
2019-06-15T05:56:50.775Z,54.77
2019-06-15T05:59:21.870Z,52.64
2019-06-15T06:01:53.005Z,50.17
2019-06-15T06:04:24.515Z,49.72
2019-06-15T06:06:55.620Z,48.95
2019-06-15T06:09:27.286Z,47.68
2019-06-15T06:11:58.684Z,47.26
2019-06-15T06:14:30.136Z,45.51
2019-06-15T06:17:01.482Z,45.41
2019-06-15T06:19:32.910Z,44.37
2019-06-15T06:22:04.336Z,44.04
2019-06-15T06:24:36.639Z,42.90
2019-06-15T06:27:08.247Z,42.36
2019-06-15T06:29:39.654Z,41.97
2019-06-15T06:32:11.088Z,41.21
2019-06-15T06:34:42.807Z,41.79
2019-06-15T06:37:14.710Z,44.71
2019-06-15T06:39:46.258Z,42.17
2019-06-15T06:42:18.169Z,45.03
2019-06-15T06:44:50.019Z,43.64
2019-06-15T06:47:21.748Z,46.83
2019-06-15T06:49:53.602Z,49.20
2019-06-15T06:52:25.436Z,48.55
2019-06-15T06:54:57.124Z,49.56
2019-06-15T06:57:29.307Z,46.96
2019-06-15T07:00:01.029Z,44.95
2019-06-15T07:02:32.937Z,47.36
2019-06-15T07:05:05.117Z,46.60
2019-06-15T07:07:37.015Z,45.46
2019-06-15T07:10:09.788Z,44.71
2019-06-15T07:12:41.800Z,45.33
2019-06-15T07:15:13.727Z,44.61
2019-06-15T07:17:45.273Z,44.54
2019-06-15T07:20:17.057Z,41.55
2019-06-15T07:22:48.766Z,43.44
2019-06-15T07:25:20.346Z,41.24
2019-06-15T07:28:06.897Z,40.77
2019-06-15T07:30:24.962Z,40.39
2019-06-15T07:32:56.370Z,42.11
2019-06-15T07:35:27.810Z,41.65
2019-06-15T07:37:59.143Z,40.46
2019-06-15T07:40:31.569Z,40.19
2019-06-15T07:43:02.935Z,38.53
2019-06-15T07:45:34.462Z,37.76
2019-06-15T07:48:06.163Z,39.47
2019-06-15T07:50:37.808Z,39.23
2019-06-15T07:53:09.692Z,40.08
2019-06-15T07:55:41.197Z,37.78
2019-06-15T07:58:24.055Z,38.73
2019-06-15T08:00:46.909Z,36.47
2019-06-15T08:03:18.582Z,35.66
2019-06-15T08:05:50.439Z,35.79
2019-06-15T08:08:22.025Z,34.25
2019-06-15T08:10:54.548Z,35.10
2019-06-15T08:13:26.095Z,35.29
2019-06-15T08:15:57.622Z,31.93
2019-06-15T08:18:29.080Z,32.37
2019-06-15T08:21:00.432Z,33.18
2019-06-15T08:23:32.029Z,33.90
2019-06-15T08:26:03.967Z,33.65
2019-06-15T08:28:40.375Z,34.85
2019-06-15T08:31:08.727Z,35.28
2019-06-15T08:33:40.304Z,33.31
2019-06-15T08:36:11.863Z,32.70
2019-06-15T08:38:43.316Z,34.46
2019-06-15T08:41:15.124Z,32.83
2019-06-15T08:43:46.771Z,33.42
2019-06-15T08:46:18.107Z,31.83
2019-06-15T08:48:49.630Z,33.29
2019-06-15T08:51:21.528Z,32.31
2019-06-15T08:53:53.017Z,31.05
2019-06-15T08:56:24.666Z,28.90
2019-06-15T08:58:56.200Z,27.85
2019-06-15T09:01:27.879Z,28.02
2019-06-15T09:03:59.853Z,29.56
2019-06-15T09:06:31.236Z,29.71
2019-06-15T09:09:02.561Z,30.36
2019-06-15T09:11:35.680Z,29.01
2019-06-15T09:14:07.056Z,29.09
2019-06-15T09:16:38.597Z,29.41
2019-06-15T09:19:09.787Z,28.74
2019-06-15T09:21:41.292Z,28.84
2019-06-15T09:24:12.528Z,29.61
2019-06-15T09:26:46.347Z,29.30
2019-06-15T09:29:17.364Z,30.50
2019-06-15T09:31:49.037Z,30.23
2019-06-15T09:34:20.630Z,29.62
2019-06-15T09:36:52.258Z,28.46
2019-06-15T09:39:23.387Z,29.97
2019-06-15T09:41:54.716Z,28.93
2019-06-15T09:44:26.023Z,29.45
2019-06-15T09:46:57.205Z,28.59
2019-06-15T09:49:28.487Z,28.32
2019-06-15T09:51:59.607Z,29.46
2019-06-15T09:54:31.252Z,29.69
2019-06-15T09:57:02.734Z,30.36
2019-06-15T09:59:34.166Z,27.83
2019-06-15T10:02:05.662Z,28.82
2019-06-15T10:04:37.340Z,28.07
2019-06-15T10:07:08.944Z,29.26
2019-06-15T10:09:40.237Z,28.52
2019-06-15T10:12:11.695Z,28.30
2019-06-15T10:14:42.680Z,29.69
2019-06-15T10:17:14.151Z,30.35
2019-06-15T10:19:45.380Z,29.16
2019-06-15T10:22:17.004Z,29.12
2019-06-15T10:24:48.053Z,30.40
2019-06-15T10:27:19.459Z,30.21
2019-06-15T10:29:50.582Z,30.50
2019-06-15T10:32:21.910Z,29.71
2019-06-15T10:34:52.897Z,29.74
2019-06-15T10:37:23.900Z,29.37
2019-06-15T10:39:55.492Z,28.81
2019-06-15T10:42:26.805Z,29.52
2019-06-15T10:44:58.077Z,30.06
2019-06-15T10:47:29.363Z,31.32
2019-06-15T10:50:00.463Z,31.19
2019-06-15T10:52:31.473Z,30.50
2019-06-15T10:55:02.415Z,29.76
2019-06-15T10:57:33.699Z,30.91
2019-06-15T11:00:06.372Z,30.92
2019-06-15T11:02:37.437Z,30.74
2019-06-15T11:05:08.781Z,31.96
2019-06-15T11:07:39.872Z,32.61
2019-06-15T11:10:12.721Z,33.19
2019-06-15T11:12:46.784Z,32.84
2019-06-15T11:15:17.116Z,33.76
2019-06-15T11:17:48.644Z,33.87
2019-06-15T11:20:19.636Z,33.33
2019-06-15T11:22:51.034Z,33.14
2019-06-15T11:25:22.396Z,33.34
2019-06-15T11:27:53.400Z,33.69
2019-06-15T11:30:24.571Z,33.99
2019-06-15T11:32:55.846Z,34.41
2019-06-15T11:35:26.857Z,34.66
2019-06-15T11:37:57.958Z,34.84
2019-06-15T11:40:29.166Z,37.61
2019-06-15T11:43:00.410Z,37.14
2019-06-15T11:45:31.516Z,35.12
2019-06-15T11:48:02.540Z,36.27
2019-06-15T11:50:33.852Z,36.24
2019-06-15T11:53:05.065Z,36.65
2019-06-15T11:55:39.598Z,36.72
2019-06-15T11:58:08.702Z,36.81
2019-06-15T12:00:41.522Z,36.72
2019-06-15T12:03:12.866Z,37.52
2019-06-15T12:05:43.756Z,37.71
2019-06-15T12:08:14.962Z,37.45
2019-06-15T12:10:46.091Z,37.08
2019-06-15T12:13:17.343Z,36.68
2019-06-15T12:15:48.228Z,36.18
2019-06-15T12:18:19.336Z,36.96
2019-06-15T12:20:50.313Z,35.21
2019-06-15T12:23:21.552Z,34.80
2019-06-15T12:25:52.813Z,35.67
2019-06-15T12:28:24.125Z,36.24
2019-06-15T12:30:55.365Z,36.21
2019-06-15T12:33:26.877Z,35.56
2019-06-15T12:35:58.039Z,36.41
2019-06-15T12:38:29.655Z,35.27
2019-06-15T12:41:00.790Z,36.20
2019-06-15T12:43:32.409Z,35.30
2019-06-15T12:46:04.032Z,35.69
2019-06-15T12:48:35.176Z,36.85
2019-06-15T12:51:06.562Z,36.62
2019-06-15T12:53:37.584Z,37.25
2019-06-15T12:56:08.402Z,36.89
2019-06-15T12:58:39.659Z,37.77
2019-06-15T13:01:10.819Z,37.48
2019-06-15T13:03:41.820Z,37.76
2019-06-15T13:06:13.921Z,37.14
2019-06-15T13:08:45.434Z,36.67
2019-06-15T13:11:16.691Z,37.23
2019-06-15T13:13:47.774Z,36.72
2019-06-15T13:16:18.636Z,36.51
2019-06-15T13:18:49.914Z,35.81
2019-06-15T13:21:21.158Z,36.47
2019-06-15T13:23:52.446Z,36.60
2019-06-15T13:26:23.673Z,37.05
2019-06-15T13:28:54.931Z,37.88
2019-06-15T13:31:26.018Z,37.04
2019-06-15T13:33:56.892Z,37.53
2019-06-15T13:36:28.086Z,37.42
2019-06-15T13:38:59.009Z,37.53
2019-06-15T13:41:29.854Z,38.35
2019-06-15T13:44:01.227Z,38.32
2019-06-15T13:46:32.714Z,38.02
2019-06-15T13:49:03.990Z,38.45
2019-06-15T13:51:34.996Z,38.49
2019-06-15T13:54:06.178Z,38.43
2019-06-15T13:56:37.178Z,39.00
2019-06-15T13:59:08.403Z,38.68
2019-06-15T14:01:39.391Z,38.06
2019-06-15T14:04:10.458Z,38.52
2019-06-15T14:06:41.678Z,37.97
2019-06-15T14:09:12.722Z,37.95
2019-06-15T14:11:43.615Z,38.28
2019-06-15T14:14:14.936Z,38.45
2019-06-15T14:16:45.889Z,38.69
2019-06-15T14:19:16.800Z,38.59
2019-06-15T14:21:47.694Z,38.92
2019-06-15T14:24:18.692Z,38.34
2019-06-15T14:26:49.686Z,38.62
2019-06-15T14:29:20.669Z,38.62
2019-06-15T14:31:51.559Z,38.81
2019-06-15T14:34:22.537Z,39.07
2019-06-15T14:36:53.499Z,39.13
2019-06-15T14:39:24.881Z,39.34
2019-06-15T14:41:55.870Z,39.13
2019-06-15T14:44:26.891Z,39.02
2019-06-15T14:46:57.768Z,39.10
2019-06-15T14:49:28.808Z,39.06
2019-06-15T14:51:59.966Z,39.15
2019-06-15T14:54:30.872Z,39.33
2019-06-15T14:57:02.027Z,39.28
2019-06-15T14:59:46.432Z,39.60
2019-06-15T15:02:10.956Z,40.34
2019-06-15T15:04:38.802Z,39.67
2019-06-15T15:07:10.365Z,40.24
2019-06-15T15:09:41.363Z,39.43
2019-06-15T15:12:16.010Z,39.37
2019-06-15T15:14:47.026Z,38.56
2019-06-15T15:17:17.918Z,38.70
2019-06-15T15:19:48.984Z,38.28
2019-06-15T15:22:20.227Z,38.55
2019-06-15T15:24:51.227Z,39.17
2019-06-15T15:27:22.238Z,39.64
2019-06-15T15:29:53.246Z,39.18
2019-06-15T15:32:31.001Z,38.52
2019-06-15T15:34:57.071Z,37.89
2019-06-15T15:37:28.443Z,37.20
2019-06-15T15:39:59.536Z,37.70
2019-06-15T15:42:30.409Z,38.22
2019-06-15T15:45:01.423Z,38.41
2019-06-15T15:47:32.481Z,38.26
2019-06-15T15:50:03.348Z,38.09
2019-06-15T15:52:37.178Z,37.69
2019-06-15T15:55:09.417Z,37.97
2019-06-15T15:57:40.403Z,38.15
2019-06-15T16:00:16.454Z,38.58
2019-06-15T16:02:51.723Z,38.42
2019-06-15T16:05:19.657Z,38.32
2019-06-15T16:07:50.815Z,38.22
2019-06-15T16:10:21.931Z,38.23
2019-06-15T16:12:53.065Z,37.83
2019-06-15T16:15:26.555Z,37.92
2019-06-15T16:17:57.134Z,37.78
2019-06-15T16:20:28.176Z,37.88
2019-06-15T16:22:59.478Z,38.12
2019-06-15T16:25:30.627Z,38.56
2019-06-15T16:28:02.039Z,38.90
2019-06-15T16:30:59.814Z,39.58
2019-06-15T16:33:08.111Z,39.98
2019-06-15T16:35:40.184Z,39.97
2019-06-15T16:38:11.200Z,40.13
2019-06-15T16:40:42.383Z,40.57
2019-06-15T16:43:13.514Z,40.89
2019-06-15T16:45:46.643Z,41.27
2019-06-15T16:48:17.398Z,41.67
2019-06-15T16:50:48.441Z,41.72
2019-06-15T16:53:19.606Z,42.35
2019-06-15T16:55:50.709Z,42.76
2019-06-15T16:58:21.961Z,43.04
2019-06-15T17:00:53.069Z,43.50
2019-06-15T17:03:26.184Z,43.83
2019-06-15T17:05:58.228Z,43.72
2019-06-15T17:08:29.561Z,44.01
2019-06-15T17:11:00.757Z,44.18
2019-06-15T17:13:31.697Z,44.58
2019-06-15T17:16:03.133Z,44.21
2019-06-15T17:18:36.235Z,44.56
2019-06-15T17:21:07.157Z,44.56
2019-06-15T17:23:38.600Z,44.41
2019-06-15T17:26:09.566Z,44.05
2019-06-15T17:28:40.467Z,44.05
2019-06-15T17:31:11.741Z,44.01
2019-06-15T17:33:43.287Z,44.44
2019-06-15T17:36:14.543Z,44.83
2019-06-15T17:38:46.254Z,44.86
2019-06-15T17:41:17.486Z,44.89
2019-06-15T17:43:48.546Z,44.41
2019-06-15T17:46:19.528Z,44.90
2019-06-15T17:48:50.431Z,44.77
2019-06-15T17:51:21.529Z,44.73
2019-06-15T17:53:52.509Z,44.82
2019-06-15T17:56:23.462Z,44.71
2019-06-15T17:58:54.324Z,44.91
2019-06-15T18:01:26.558Z,44.97
2019-06-15T18:03:58.280Z,45.79
2019-06-15T18:06:30.313Z,45.71
2019-06-15T18:09:01.667Z,45.85
2019-06-15T18:11:37.390Z,45.72
2019-06-15T18:14:06.902Z,45.78
2019-06-15T18:16:38.434Z,45.65
2019-06-15T18:19:09.422Z,45.85
2019-06-15T18:21:41.574Z,46.05
2019-06-15T18:24:12.573Z,46.30
2019-06-15T18:26:43.787Z,46.41
2019-06-15T18:29:16.764Z,46.54
2019-06-15T18:31:47.484Z,47.15
2019-06-15T18:34:18.504Z,47.05
2019-06-15T18:36:49.370Z,47.13
2019-06-15T18:39:20.557Z,47.73
2019-06-15T18:41:51.508Z,47.60
2019-06-15T18:44:22.572Z,47.60
2019-06-15T18:46:56.424Z,47.46
2019-06-15T18:49:27.380Z,47.67
2019-06-15T18:51:58.458Z,49.36
2019-06-15T18:54:29.467Z,49.36
2019-06-15T18:57:00.414Z,49.20
2019-06-15T18:59:31.387Z,49.30
2019-06-15T19:02:02.347Z,49.30
2019-06-15T19:04:33.183Z,49.10
2019-06-15T19:07:06.505Z,49.09
2019-06-15T19:09:37.231Z,48.85
2019-06-15T19:12:08.101Z,49.01
2019-06-15T19:14:39.033Z,48.56
2019-06-15T19:17:10.385Z,49.10
2019-06-15T19:19:41.290Z,49.01
2019-06-15T19:22:14.056Z,48.43
2019-06-15T19:24:49.992Z,48.43
2019-06-15T19:27:18.013Z,48.83
2019-06-15T19:29:48.959Z,48.95
2019-06-15T19:32:19.990Z,48.90
2019-06-15T19:34:51.322Z,49.12
2019-06-15T19:37:22.203Z,49.14
2019-06-15T19:39:53.183Z,49.61
2019-06-15T19:42:26.005Z,49.84
2019-06-15T19:44:57.221Z,49.63
2019-06-15T19:47:28.501Z,49.79
2019-06-15T19:49:59.666Z,49.82
2019-06-15T19:52:31.077Z,49.99
2019-06-15T19:55:02.465Z,50.29
2019-06-15T19:57:36.004Z,50.61
2019-06-15T20:00:07.487Z,50.96
2019-06-15T20:02:38.513Z,50.79
2019-06-15T20:05:10.663Z,50.75
2019-06-15T20:07:41.911Z,50.67
2019-06-15T20:10:14.626Z,51.45
2019-06-15T20:12:46.627Z,51.64
2019-06-15T20:15:17.892Z,52.66
2019-06-15T20:17:49.299Z,51.53
2019-06-15T20:20:20.545Z,52.61
2019-06-15T20:22:51.754Z,53.02
2019-06-15T20:25:22.578Z,53.70
2019-06-15T20:27:56.237Z,53.40
2019-06-15T20:30:26.602Z,54.44
2019-06-15T20:32:57.572Z,52.90
2019-06-15T20:35:28.610Z,51.49
2019-06-15T20:37:59.696Z,52.10
2019-06-15T20:40:30.856Z,51.58
2019-06-15T20:43:01.810Z,51.72
2019-06-15T20:45:33.891Z,54.39
2019-06-15T20:48:06.823Z,54.39
2019-06-15T20:50:37.757Z,52.90
2019-06-15T20:53:08.845Z,55.87
2019-06-15T20:55:40.056Z,56.19
2019-06-15T20:58:11.102Z,56.07
2019-06-15T21:00:42.059Z,56.07
2019-06-15T21:03:13.190Z,57.09
2019-06-15T21:05:44.204Z,57.99
2019-06-15T21:08:15.977Z,56.78
2019-06-15T21:10:46.977Z,56.78
2019-06-15T21:13:17.961Z,57.83
2019-06-15T21:15:49.600Z,56.83
2019-06-15T21:18:20.744Z,56.83
2019-06-15T21:20:51.784Z,57.82
2019-06-15T21:23:22.882Z,58.92
2019-06-15T21:25:54.010Z,58.92
2019-06-15T21:28:27.185Z,58.88
2019-06-15T21:30:57.625Z,59.88
2019-06-15T21:33:28.622Z,60.11
2019-06-15T21:35:59.514Z,59.97
2019-06-15T21:38:30.725Z,60.78
2019-06-15T21:41:01.980Z,60.52
2019-06-15T21:43:33.043Z,60.88
2019-06-15T21:46:06.302Z,61.37
2019-06-15T21:48:37.089Z,62.06
2019-06-15T21:51:08.629Z,62.13
2019-06-15T21:53:39.961Z,62.85
2019-06-15T21:56:11.102Z,63.66
2019-06-15T21:58:42.833Z,63.66
2019-06-15T22:01:22.405Z,63.87
2019-06-15T22:03:53.874Z,63.88
2019-06-15T22:06:26.251Z,63.62
2019-06-15T22:08:58.005Z,63.64
2019-06-15T22:11:29.099Z,64.16
2019-06-15T22:14:00.270Z,64.58
2019-06-15T22:16:31.455Z,64.52
2019-06-15T22:19:03.035Z,63.77
2019-06-15T22:21:36.619Z,63.43
2019-06-15T22:24:07.559Z,64.11
2019-06-15T22:26:38.948Z,63.91
2019-06-15T22:29:10.795Z,64.44
2019-06-15T22:31:42.123Z,65.06
2019-06-15T22:34:16.066Z,64.89
2019-06-15T22:36:47.926Z,65.54
2019-06-15T22:39:19.412Z,65.85
2019-06-15T22:41:50.696Z,66.10
2019-06-15T22:44:22.077Z,66.54
2019-06-15T22:46:53.270Z,66.72
2019-06-15T22:49:24.911Z,67.28
2019-06-15T22:51:56.904Z,67.22
2019-06-15T22:54:29.065Z,67.32
2019-06-15T22:57:00.163Z,67.42
2019-06-15T22:59:31.513Z,68.13
2019-06-15T23:02:02.443Z,68.67
2019-06-15T23:04:33.528Z,69.42
2019-06-15T23:07:06.796Z,69.28
2019-06-15T23:09:37.574Z,69.50
2019-06-15T23:12:08.734Z,69.77
2019-06-15T23:14:41.051Z,70.00
2019-06-15T23:17:12.174Z,70.00
2019-06-15T23:19:45.977Z,70.40
2019-06-15T23:22:17.179Z,70.36
2019-06-15T23:24:48.179Z,71.24
2019-06-15T23:27:19.631Z,71.38
2019-06-15T23:29:50.683Z,71.03
2019-06-15T23:32:22.033Z,71.42
2019-06-15T23:34:56.384Z,71.32
2019-06-15T23:37:27.530Z,70.87
2019-06-15T23:40:16.360Z,71.08
2019-06-15T23:42:47.959Z,70.50
2019-06-15T23:45:20.526Z,70.74
2019-06-15T23:47:51.890Z,71.76
2019-06-15T23:50:26.404Z,72.15
2019-06-15T23:52:58.156Z,72.56
2019-06-15T23:55:29.603Z,71.96
2019-06-15T23:58:00.848Z,72.18
